Time;durP1;ratioP1;P1;durP2;ratioP2;P2;SDS_P1;SDS_P2;PMS_P1;PMS_P2;Temp;Humidity;BMP_temperature;BMP_pressure;BME280_temperature;BME280_humidity;BME280_pressure;Samples;Min_cycle;Max_cycle;Signal;HPM_P1;HPM_P2
2022/03/03 00:01:03;;;;;;;2.17;2.03;;;20.50;35.70;;;;;;5112327;28;20051;-79
2022/03/03 00:03:29;;;;;;;2.28;2.03;;;20.50;35.70;;;;;;5114432;28;20055;-79
2022/03/03 00:05:54;;;;;;;2.20;2.00;;;20.50;35.70;;;;;;5115959;28;20086;-79
2022/03/03 00:08:20;;;;;;;2.22;2.03;;;20.50;35.70;;;;;;5115558;28;20058;-79
2022/03/03 00:10:45;;;;;;;2.30;2.03;;;20.50;35.70;;;;;;5097561;28;20143;-79
2022/03/03 00:13:11;;;;;;;2.70;2.25;;;20.50;35.70;;;;;;5115637;28;20087;-79
2022/03/03 00:15:36;;;;;;;1.98;1.88;;;20.50;35.70;;;;;;5115486;28;20051;-78
2022/03/03 00:18:02;;;;;;;1.73;1.63;;;20.50;35.70;;;;;;5096931;28;20059;-78
2022/03/03 00:20:28;;;;;;;2.25;1.80;;;20.50;36.20;;;;;;5095830;28;20056;-78
2022/03/03 00:22:55;;;;;;;2.80;2.17;;;20.40;35.70;;;;;;5097720;28;20062;-79
2022/03/03 00:25:21;;;;;;;2.38;1.98;;;20.50;35.70;;;;;;5097307;28;20047;-78
2022/03/03 00:27:47;;;;;;;2.40;2.20;;;20.50;35.70;;;;;;5115439;28;20052;-78
2022/03/03 00:30:13;;;;;;;2.75;2.30;;;20.50;35.70;;;;;;5114352;28;20055;-78
2022/03/03 00:32:40;;;;;;;2.05;1.85;;;20.50;35.70;;;;;;5115320;28;20040;-78
2022/03/03 00:35:10;;;;;;;2.28;2.10;;;20.50;35.70;;;;;;5113925;28;20130;-78
2022/03/03 00:37:36;;;;;;;2.47;2.28;;;20.50;35.70;;;;;;5115304;28;20407;-78
2022/03/03 00:40:04;;;;;;;2.20;2.00;;;20.50;35.70;;;;;;5114989;28;20047;-78
2022/03/03 00:42:30;;;;;;;2.45;2.25;;;20.50;35.70;;;;;;5096845;28;20104;-79
2022/03/03 00:44:56;;;;;;;2.35;2.15;;;20.50;35.70;;;;;;5096908;28;20048;-78
2022/03/03 00:47:22;;;;;;;2.22;2.03;;;20.50;35.70;;;;;;5115031;28;20040;-78
2022/03/03 00:49:47;;;;;;;2.30;2.10;;;20.50;35.70;;;;;;5114926;28;20066;-78
2022/03/03 00:52:13;;;;;;;1.92;1.83;;;20.50;35.70;;;;;;5113689;28;20052;-78
2022/03/03 00:54:39;;;;;;;1.80;1.70;;;20.50;35.70;;;;;;5113974;28;20056;-79
2022/03/03 00:57:04;;;;;;;2.22;1.98;;;20.50;35.70;;;;;;5114820;28;20075;-78
2022/03/03 00:59:30;;;;;;;1.75;1.60;;;20.50;35.60;;;;;;5114871;28;20047;-79
2022/03/03 01:01:57;;;;;;;2.38;2.17;;;20.50;35.70;;;;;;5096425;28;20138;-79
2022/03/03 01:04:24;;;;;;;2.03;1.88;;;20.50;35.70;;;;;;5114726;28;20487;-79
2022/03/03 01:06:51;;;;;;;2.65;2.00;;;20.50;35.60;;;;;;5096345;28;20039;-79
2022/03/03 01:09:17;;;;;;;2.50;1.85;;;20.50;35.60;;;;;;5114520;28;20435;-79
2022/03/03 01:11:43;;;;;;;2.15;1.92;;;20.50;35.60;;;;;;5096098;28;20055;-78
2022/03/03 01:14:08;;;;;;;1.80;1.70;;;20.60;35.70;;;;;;5111909;28;20365;-79
2022/03/03 01:16:34;;;;;;;2.38;2.17;;;20.50;35.70;;;;;;5114193;28;20406;-79
2022/03/03 01:18:59;;;;;;;2.20;1.95;;;20.50;35.70;;;;;;5095710;28;20051;-78
2022/03/03 01:21:25;;;;;;;2.35;1.90;;;20.50;35.60;;;;;;5111978;28;20056;-79
2022/03/03 01:23:51;;;;;;;1.90;1.80;;;20.50;35.60;;;;;;5114432;28;20059;-79
2022/03/03 01:26:18;;;;;;;2.15;1.95;;;20.50;35.70;;;;;;5113654;28;20055;-79
2022/03/03 01:28:44;;;;;;;2.20;2.00;;;20.50;35.60;;;;;;5114364;28;20495;-78
2022/03/03 01:31:09;;;;;;;2.30;2.03;;;20.50;35.70;;;;;;5094615;28;20052;-78
2022/03/03 01:33:35;;;;;;;2.30;2.08;;;20.50;35.70;;;;;;5114293;28;20139;-79
2022/03/03 01:36:00;;;;;;;2.38;1.83;;;20.50;35.70;;;;;;5114183;28;20051;-79
2022/03/03 01:38:26;;;;;;;2.50;2.05;;;20.50;35.70;;;;;;5112947;28;20051;-79
2022/03/03 01:40:52;;;;;;;2.28;2.08;;;20.50;35.70;;;;;;5095850;28;20104;-78
2022/03/03 01:43:17;;;;;;;1.95;1.80;;;20.50;35.70;;;;;;5096121;28;20091;-79
2022/03/03 01:45:43;;;;;;;2.30;1.92;;;20.50;35.70;;;;;;5114071;28;20445;-78
2022/03/03 01:48:08;;;;;;;2.10;1.90;;;20.50;35.70;;;;;;5112820;28;20052;-78
2022/03/03 01:50:34;;;;;;;2.33;2.08;;;20.50;35.70;;;;;;5095672;28;20052;-79
2022/03/03 01:52:59;;;;;;;1.77;1.67;;;20.50;35.70;;;;;;5113953;28;20055;-79
2022/03/03 01:55:25;;;;;;;2.45;2.25;;;20.50;35.70;;;;;;5114350;28;20070;-78
2022/03/03 01:57:54;;;;;;;2.60;2.38;;;20.50;35.70;;;;;;5114109;28;20403;-78
2022/03/03 02:00:20;;;;;;;2.38;2.17;;;20.50;35.70;;;;;;5113920;28;20048;-78
2022/03/03 02:02:46;;;;;;;2.00;1.80;;;20.50;36.20;;;;;;5113758;28;20043;-79
2022/03/03 02:05:12;;;;;;;2.10;1.90;;;20.50;35.60;;;;;;5114046;28;20471;-78
2022/03/03 02:07:38;;;;;;;2.45;2.20;;;20.50;35.70;;;;;;5095332;28;20070;-78
2022/03/03 02:10:05;;;;;;;2.72;2.17;;;20.50;35.70;;;;;;5113789;28;20407;-78
2022/03/03 02:12:30;;;;;;;2.13;1.98;;;20.50;35.70;;;;;;5112341;28;20448;-79
2022/03/03 02:14:56;;;;;;;2.28;2.08;;;20.50;35.70;;;;;;5113717;28;20134;-78
2022/03/03 02:17:22;;;;;;;2.40;2.20;;;20.60;35.70;;;;;;5112212;28;20122;-78
2022/03/03 02:19:48;;;;;;;2.85;2.17;;;20.50;35.70;;;;;;5113244;28;20047;-78
2022/03/03 02:22:14;;;;;;;2.28;1.88;;;20.50;35.70;;;;;;5113619;28;20071;-79
2022/03/03 02:24:40;;;;;;;2.15;1.95;;;20.50;35.70;;;;;;5078735;28;20048;-78
2022/03/03 02:27:07;;;;;;;2.17;1.95;;;20.50;35.70;;;;;;5113407;28;20078;-79
2022/03/03 02:29:33;;;;;;;2.17;1.98;;;20.50;35.60;;;;;;5113367;28;20055;-78
2022/03/03 02:32:00;;;;;;;2.33;2.13;;;20.50;35.60;;;;;;5095055;28;20051;-78
2022/03/03 02:34:27;;;;;;;2.28;1.90;;;20.50;35.60;;;;;;5113366;28;20059;-79
2022/03/03 02:36:54;;;;;;;2.30;2.00;;;20.50;35.60;;;;;;5094866;28;20471;-79
2022/03/03 02:39:21;;;;;;;1.80;1.70;;;20.50;35.60;;;;;;5094732;28;20410;-78
2022/03/03 02:41:46;;;;;;;2.13;1.95;;;20.60;35.60;;;;;;5113412;28;20056;-78
2022/03/03 02:44:12;;;;;;;1.90;1.75;;;20.50;35.60;;;;;;5095394;28;20130;-79
2022/03/03 02:46:37;;;;;;;2.20;1.95;;;20.50;35.60;;;;;;5093972;28;20067;-79
2022/03/03 02:49:04;;;;;;;2.85;2.10;;;20.60;35.70;;;;;;5092996;28;20051;-78
2022/03/03 02:51:30;;;;;;;2.45;1.95;;;20.50;35.60;;;;;;5112956;28;20055;-79
2022/03/03 02:53:55;;;;;;;3.00;2.00;;;20.50;35.60;;;;;;5112999;28;20052;-79
2022/03/03 02:56:21;;;;;;;2.00;1.80;;;20.50;35.60;;;;;;5092895;28;20139;-79
2022/03/03 02:58:47;;;;;;;2.75;2.22;;;20.50;35.60;;;;;;5112955;28;20056;-79
2022/03/03 03:01:12;;;;;;;2.40;2.20;;;20.60;35.60;;;;;;5113030;28;20047;-79
2022/03/03 03:03:38;;;;;;;1.98;1.88;;;20.60;35.60;;;;;;5113627;28;20055;-78
2022/03/03 03:06:04;;;;;;;1.98;1.88;;;20.60;35.60;;;;;;5112850;28;20406;-79
2022/03/03 03:08:29;;;;;;;2.03;1.83;;;20.60;35.60;;;;;;5113289;28;20403;-78
2022/03/03 03:10:55;;;;;;;2.17;1.98;;;20.60;35.50;;;;;;5093188;28;20056;-78
2022/03/03 03:13:21;;;;;;;2.15;1.90;;;20.60;35.50;;;;;;5112786;28;20455;-78
2022/03/03 03:15:46;;;;;;;2.30;2.10;;;20.60;35.50;;;;;;5113121;28;20487;-78
2022/03/03 03:18:16;;;;;;;2.20;2.00;;;20.60;35.50;;;;;;5112688;28;20044;-78
2022/03/03 03:20:44;;;;;;;2.25;1.95;;;20.70;35.40;;;;;;5093241;28;20048;-79
2022/03/03 03:23:11;;;;;;;1.80;1.70;;;20.70;35.40;;;;;;5112803;28;20048;-78
2022/03/03 03:25:37;;;;;;;2.35;1.73;;;20.70;35.40;;;;;;5112984;28;20104;-78
2022/03/03 03:28:07;;;;;;;2.30;2.10;;;20.70;35.40;;;;;;5094679;28;20056;-78
2022/03/03 03:30:33;;;;;;;2.20;2.00;;;20.70;35.30;;;;;;5112446;28;20059;-78
2022/03/03 03:32:59;;;;;;;2.67;2.30;;;20.70;35.40;;;;;;5112650;28;20039;-78
2022/03/03 03:35:24;;;;;;;2.05;1.88;;;20.80;35.40;;;;;;5094129;28;20178;-78
2022/03/03 03:37:51;;;;;;;2.22;2.03;;;20.80;35.40;;;;;;5096944;28;20083;-78
2022/03/03 03:40:17;;;;;;;1.95;1.80;;;20.80;35.30;;;;;;5115944;28;20075;-76
2022/03/03 03:42:42;;;;;;;2.17;1.90;;;20.80;35.30;;;;;;5116138;28;20047;-76
2022/03/03 03:45:09;;;;;;;2.30;2.10;;;20.80;35.40;;;;;;5115927;28;20062;-76
2022/03/03 03:47:35;;;;;;;2.42;2.20;;;20.80;35.30;;;;;;5115965;28;20064;-78
2022/03/03 03:50:02;;;;;;;2.20;2.00;;;20.80;35.30;;;;;;5115951;28;20052;-79
2022/03/03 03:52:29;;;;;;;2.03;1.83;;;20.80;35.30;;;;;;5097570;28;20052;-78
2022/03/03 03:54:54;;;;;;;1.90;1.80;;;20.80;35.30;;;;;;5115890;28;20082;-79
2022/03/03 03:57:20;;;;;;;2.30;2.05;;;20.80;35.30;;;;;;5115799;28;20118;-78
2022/03/03 03:59:45;;;;;;;2.63;1.90;;;20.80;35.30;;;;;;5115633;28;20048;-78
2022/03/03 04:02:11;;;;;;;1.80;1.70;;;20.80;35.30;;;;;;5115755;28;20047;-78
2022/03/03 04:04:37;;;;;;;2.28;1.88;;;20.80;35.30;;;;;;5115806;28;20051;-78
2022/03/03 04:07:03;;;;;;;2.08;1.88;;;20.80;35.30;;;;;;5113147;28;20048;-79
2022/03/03 04:09:29;;;;;;;2.67;2.05;;;20.80;35.30;;;;;;5115717;28;20149;-78
2022/03/03 04:11:56;;;;;;;2.20;2.00;;;20.80;35.30;;;;;;5096972;28;20044;-78
2022/03/03 04:14:24;;;;;;;2.45;2.25;;;20.80;35.30;;;;;;5115539;28;20055;-79
2022/03/03 04:16:52;;;;;;;2.22;2.03;;;20.80;35.30;;;;;;5097077;28;20048;-78
2022/03/03 04:19:19;;;;;;;2.10;1.90;;;20.80;35.30;;;;;;5112781;28;20055;-78
2022/03/03 04:21:44;;;;;;;1.80;1.70;;;20.80;35.30;;;;;;5115181;28;20052;-78
2022/03/03 04:24:10;;;;;;;2.17;1.98;;;20.80;35.30;;;;;;5113323;28;20494;-79
2022/03/03 04:26:36;;;;;;;3.25;2.65;;;20.70;35.30;;;;;;5115529;28;20051;-78
2022/03/03 04:29:02;;;;;;;2.25;2.05;;;20.80;35.30;;;;;;5115164;28;20059;-78
2022/03/03 04:31:28;;;;;;;2.53;2.28;;;20.80;35.40;;;;;;5113194;28;20514;-78
2022/03/03 04:33:55;;;;;;;2.13;1.95;;;20.80;35.30;;;;;;5115361;28;20047;-79
2022/03/03 04:36:20;;;;;;;2.25;2.05;;;20.80;35.30;;;;;;5115098;28;20047;-79
2022/03/03 04:38:49;;;;;;;2.17;1.98;;;20.80;35.40;;;;;;5096109;28;20056;-78
2022/03/03 04:41:15;;;;;;;2.05;1.92;;;20.70;35.30;;;;;;5115121;28;20138;-79
2022/03/03 04:43:41;;;;;;;2.28;2.08;;;20.80;35.40;;;;;;5096836;28;20077;-78
2022/03/03 04:46:06;;;;;;;3.08;2.38;;;20.80;35.40;;;;;;5115392;28;20051;-78
2022/03/03 04:48:32;;;;;;;2.35;2.15;;;20.80;35.30;;;;;;5113656;28;20052;-79
2022/03/03 04:50:58;;;;;;;2.22;2.03;;;20.80;35.40;;;;;;5114998;28;20149;-78
2022/03/03 04:53:25;;;;;;;2.17;1.90;;;20.80;35.40;;;;;;5114952;28;20048;-78
2022/03/03 04:55:51;;;;;;;1.98;1.85;;;20.70;35.30;;;;;;5096596;28;20124;-78
2022/03/03 04:58:17;;;;;;;2.38;2.17;;;20.70;35.30;;;;;;5114760;28;20479;-78
2022/03/03 05:00:43;;;;;;;1.95;1.80;;;20.70;35.30;;;;;;5114836;28;20059;-78
2022/03/03 05:03:08;;;;;;;2.30;2.10;;;20.70;35.30;;;;;;5096456;28;20062;-79
2022/03/03 05:05:34;;;;;;;2.42;2.05;;;20.70;35.30;;;;;;5114621;28;20044;-78
2022/03/03 05:07:59;;;;;;;2.15;2.00;;;20.70;35.30;;;;;;5114739;28;20058;-78
2022/03/03 05:10:25;;;;;;;2.30;2.10;;;20.70;35.30;;;;;;5079755;28;20075;-79
2022/03/03 05:12:50;;;;;;;2.55;2.20;;;20.70;35.30;;;;;;5096541;28;20059;-78
2022/03/03 05:15:16;;;;;;;2.67;2.10;;;20.70;35.30;;;;;;5114628;28;20086;-78
2022/03/03 05:17:42;;;;;;;2.15;1.95;;;20.70;35.30;;;;;;5114305;28;20048;-78
2022/03/03 05:20:08;;;;;;;2.25;2.05;;;20.70;35.30;;;;;;5114312;28;20056;-78
2022/03/03 05:22:34;;;;;;;2.08;1.88;;;20.70;35.30;;;;;;5095924;28;20043;-79
2022/03/03 05:24:59;;;;;;;2.00;1.80;;;20.70;35.30;;;;;;5114492;28;20483;-78
2022/03/03 05:27:25;;;;;;;2.25;2.05;;;20.80;35.30;;;;;;5114465;28;20463;-78
2022/03/03 05:29:51;;;;;;;2.95;2.70;;;20.70;35.30;;;;;;5113361;28;20047;-79
2022/03/03 05:32:16;;;;;;;2.33;2.13;;;20.70;35.30;;;;;;5114271;28;20058;-79
2022/03/03 05:34:42;;;;;;;2.22;2.03;;;20.70;35.30;;;;;;5114309;28;20067;-79
2022/03/03 05:37:07;;;;;;;2.25;2.05;;;20.70;35.30;;;;;;5096378;28;20039;-79
2022/03/03 05:39:35;;;;;;;2.55;2.08;;;20.70;35.30;;;;;;5114163;28;20063;-78
2022/03/03 05:42:02;;;;;;;2.40;2.20;;;20.70;35.30;;;;;;5094359;28;20113;-78
2022/03/03 05:44:29;;;;;;;1.75;1.65;;;20.70;35.30;;;;;;5114153;28;20090;-78
2022/03/03 05:46:56;;;;;;;2.58;2.30;;;20.70;35.30;;;;;;5114133;28;20108;-78
2022/03/03 05:49:23;;;;;;;2.28;2.08;;;20.70;35.30;;;;;;5113932;28;20399;-79
2022/03/03 05:51:49;;;;;;;1.92;1.80;;;20.70;35.30;;;;;;5114045;28;20081;-79
2022/03/03 05:54:14;;;;;;;2.10;1.90;;;20.80;35.40;;;;;;5114335;28;20055;-78
2022/03/03 05:56:45;;;;;;;2.05;1.88;;;20.70;35.20;;;;;;5094721;28;20131;-79
2022/03/03 05:59:13;;;;;;;2.00;1.83;;;20.70;35.30;;;;;;5094196;28;20055;-78
2022/03/03 06:01:41;;;;;;;2.42;1.80;;;20.70;35.20;;;;;;5113778;28;20105;-79
2022/03/03 06:04:08;;;;;;;1.98;1.83;;;20.70;35.20;;;;;;5094438;28;20089;-79
2022/03/03 06:06:36;;;;;;;2.45;2.25;;;20.80;35.30;;;;;;5113617;28;20079;-78
2022/03/03 06:09:14;;;;;;;2.65;2.28;;;20.80;35.30;;;;;;5113600;28;20124;-79
2022/03/03 06:11:48;;;;;;;2.25;1.80;;;20.80;35.30;;;;;;5077565;28;20079;-78
2022/03/03 06:14:20;;;;;;;2.40;1.70;;;20.70;35.30;;;;;;5113676;28;20114;-78
2022/03/03 06:16:47;;;;;;;2.03;1.83;;;20.80;35.30;;;;;;5113480;28;20138;-78
2022/03/03 06:19:14;;;;;;;1.92;1.77;;;20.80;35.30;;;;;;5094036;28;20052;-78
2022/03/03 06:21:39;;;;;;;2.33;2.13;;;20.80;35.30;;;;;;5113210;28;20134;-78
2022/03/03 06:24:05;;;;;;;2.58;2.28;;;20.80;35.20;;;;;;5113702;28;20079;-78
2022/03/03 06:26:31;;;;;;;2.20;2.00;;;20.80;35.20;;;;;;5113328;28;20108;-78
2022/03/03 06:28:57;;;;;;;3.13;2.22;;;20.80;35.20;;;;;;5113343;28;20055;-79
2022/03/03 06:31:25;;;;;;;2.28;2.08;;;20.80;35.20;;;;;;5113387;28;20495;-78
2022/03/03 06:33:51;;;;;;;2.25;1.95;;;20.80;35.10;;;;;;5113296;28;20048;-79
2022/03/03 06:36:16;;;;;;;2.78;2.13;;;20.90;35.20;;;;;;5095050;28;20051;-79
2022/03/03 06:38:42;;;;;;;2.10;1.90;;;20.90;35.20;;;;;;5113473;28;20142;-78
2022/03/03 06:41:08;;;;;;;2.88;2.50;;;20.90;35.10;;;;;;5113154;28;20051;-78
2022/03/03 06:43:34;;;;;;;2.00;1.80;;;20.80;35.10;;;;;;5113155;28;20507;-79
2022/03/03 06:45:59;;;;;;;2.10;1.90;;;20.90;35.20;;;;;;5111691;28;20056;-79
2022/03/03 06:48:25;;;;;;;2.15;1.95;;;20.90;35.10;;;;;;5113054;28;20050;-78
2022/03/03 06:50:53;;;;;;;2.35;2.10;;;20.80;35.10;;;;;;5093458;28;20132;-78
2022/03/03 06:53:28;;;;;;;1.75;1.60;;;20.80;35.10;;;;;;5113235;28;20055;-78
2022/03/03 06:56:05;;;;;;;2.00;1.80;;;20.90;35.10;;;;;;5113307;28;20051;-78
2022/03/03 06:58:31;;;;;;;2.35;2.08;;;20.90;35.10;;;;;;5111645;28;20071;-78
2022/03/03 07:00:57;;;;;;;2.28;1.90;;;20.90;35.10;;;;;;5094922;28;20437;-78
2022/03/03 07:03:24;;;;;;;2.30;2.05;;;20.90;35.10;;;;;;5094879;28;20043;-79
2022/03/03 07:05:51;;;;;;;2.33;1.98;;;20.80;35.10;;;;;;5113180;28;20384;-79
2022/03/03 07:08:20;;;;;;;2.10;1.90;;;20.80;35.10;;;;;;5113263;28;20043;-79
2022/03/03 07:10:47;;;;;;;2.15;1.95;;;20.90;35.10;;;;;;5112961;28;20044;-79
2022/03/03 07:13:16;;;;;;;2.10;1.90;;;20.90;35.10;;;;;;5116285;28;20093;-78
2022/03/03 07:15:55;;;;;;;2.13;1.92;;;20.90;35.10;;;;;;5116444;28;20051;-78
2022/03/03 07:18:30;;;;;;;2.67;2.22;;;20.90;35.10;;;;;;5098126;28;20051;-79
2022/03/03 07:21:38;;;;;;;2.85;2.00;;;20.90;35.10;;;;;;5116340;28;20047;-78
2022/03/03 07:24:17;;;;;;;2.13;1.92;;;20.90;35.10;;;;;;5116024;28;20495;-78
2022/03/03 07:26:47;;;;;;;2.08;1.88;;;20.90;35.10;;;;;;5116225;28;20051;-78
2022/03/03 07:29:16;;;;;;;1.80;1.70;;;20.90;35.10;;;;;;5116251;28;20051;-78
2022/03/03 07:31:55;;;;;;;2.33;2.13;;;20.90;35.00;;;;;;5116105;28;20498;-78
2022/03/03 07:34:36;;;;;;;2.20;2.00;;;20.90;35.00;;;;;;5116538;28;20056;-78
2022/03/03 07:37:07;;;;;;;2.27;2.07;;;20.90;35.00;;;;;;5097885;28;20087;-79
2022/03/03 07:39:42;;;;;;;2.10;1.90;;;20.90;35.00;;;;;;5115995;28;20058;-78
2022/03/03 07:42:12;;;;;;;1.98;1.83;;;20.90;35.00;;;;;;5116410;28;20071;-79
2022/03/03 07:44:38;;;;;;;1.70;1.52;;;21.00;35.50;;;;;;5081291;28;20051;-78
2022/03/03 07:47:06;;;;;;;1.92;1.83;;;21.00;35.00;;;;;;5097675;28;20388;-79
2022/03/03 07:49:31;;;;;;;2.08;1.88;;;20.90;34.90;;;;;;5115943;28;20059;-79
2022/03/03 07:51:58;;;;;;;2.15;1.95;;;20.90;34.90;;;;;;5114696;28;20403;-79
2022/03/03 07:54:24;;;;;;;2.47;2.20;;;21.00;35.00;;;;;;5097875;28;20051;-79
2022/03/03 07:56:56;;;;;;;2.25;2.05;;;20.90;34.90;;;;;;5115757;28;20047;-79
2022/03/03 07:59:28;;;;;;;1.77;1.55;;;20.90;34.90;;;;;;5098039;28;20147;-78
2022/03/03 08:01:56;;;;;;;2.75;1.85;;;21.00;34.90;;;;;;5115917;28;20380;-78
2022/03/03 08:04:33;;;;;;;1.90;1.70;;;21.00;34.90;;;;;;5115738;28;20090;-78
2022/03/03 08:07:05;;;;;;;1.85;1.63;;;21.00;34.90;;;;;;5115826;28;20051;-78
2022/03/03 08:09:33;;;;;;;2.03;1.80;;;21.00;34.90;;;;;;5097517;28;20497;-78
2022/03/03 08:12:04;;;;;;;1.83;1.73;;;21.00;34.90;;;;;;5115685;28;20051;-78
2022/03/03 08:14:30;;;;;;;;;;;21.00;34.80;;;;;;5116013;28;20048;-78
2022/03/03 08:16:57;;;;;;;1.80;1.60;;;21.00;34.80;;;;;;5097077;28;19916;-79
2022/03/03 08:19:24;;;;;;;1.92;1.77;;;21.00;34.80;;;;;;5115292;28;20142;-78
2022/03/03 08:21:50;;;;;;;2.08;1.90;;;21.00;34.80;;;;;;5112653;28;20048;-78
2022/03/03 08:24:16;;;;;;;2.53;1.92;;;21.00;34.80;;;;;;5097041;28;20086;-78
2022/03/03 08:26:43;;;;;;;2.20;1.70;;;21.10;34.80;;;;;;5115232;28;20087;-78
2022/03/03 08:29:10;;;;;;;2.17;2.00;;;21.00;34.80;;;;;;5115136;28;20077;-78
2022/03/03 08:31:39;;;;;;;2.10;1.90;;;21.00;34.80;;;;;;5115173;28;20406;-78
2022/03/03 08:34:27;;;;;;;2.08;1.88;;;21.00;34.80;;;;;;5115176;28;20479;-79
2022/03/03 08:37:00;;;;;;;2.15;1.95;;;21.00;34.80;;;;;;5091245;28;20062;-78
2022/03/03 08:39:28;;;;;;;2.20;2.00;;;21.00;34.80;;;;;;5115186;28;20427;-78
2022/03/03 08:42:00;;;;;;;1.98;1.80;;;21.00;34.80;;;;;;5115316;28;20044;-78
2022/03/03 08:44:31;;;;;;;2.38;1.70;;;21.00;34.80;;;;;;5114991;28;20475;-78
2022/03/03 08:46:57;;;;;;;2.00;1.80;;;21.00;34.80;;;;;;5114910;28;20106;-78
2022/03/03 08:49:32;;;;;;;2.53;2.33;;;21.00;34.80;;;;;;5114974;28;20044;-78
2022/03/03 08:51:59;;;;;;;2.10;1.90;;;21.00;34.80;;;;;;5114975;28;20040;-79
2022/03/03 08:54:26;;;;;;;2.28;2.05;;;21.00;34.80;;;;;;5096692;28;20055;-78
2022/03/03 08:56:52;;;;;;;2.58;2.15;;;21.00;34.80;;;;;;5114594;28;20056;-78
2022/03/03 08:59:17;;;;;;;2.00;1.80;;;21.00;34.80;;;;;;5114867;28;20066;-78
2022/03/03 09:01:43;;;;;;;2.35;2.00;;;21.00;34.70;;;;;;5114600;28;20056;-79
2022/03/03 09:04:08;;;;;;;2.03;1.75;;;21.10;34.80;;;;;;5114975;28;20479;-78
2022/03/03 09:06:34;;;;;;;2.03;1.70;;;21.10;34.80;;;;;;5114331;28;20067;-79
2022/03/03 09:08:59;;;;;;;3.28;1.90;;;21.10;34.80;;;;;;5094863;28;20052;-78
2022/03/03 09:11:25;;;;;;;3.33;1.92;;;21.10;34.70;;;;;;5114566;28;20052;-79
2022/03/03 09:13:51;;;;;;;3.25;2.10;;;21.10;34.70;;;;;;5114675;28;20048;-78
2022/03/03 09:16:18;;;;;;;2.25;1.85;;;21.10;34.70;;;;;;5114291;28;20507;-78
2022/03/03 09:18:45;;;;;;;2.45;1.73;;;21.10;34.60;;;;;;5114526;28;20097;-78
2022/03/03 09:21:11;;;;;;;1.65;1.55;;;21.10;34.60;;;;;;5114268;28;20055;-78
2022/03/03 09:23:37;;;;;;;3.25;2.20;;;21.10;34.60;;;;;;5114284;28;20104;-78
2022/03/03 09:26:03;;;;;;;3.13;1.98;;;21.10;34.60;;;;;;5113081;28;20083;-78
2022/03/03 09:28:29;;;;;;;3.20;1.90;;;21.20;34.70;;;;;;5095993;28;20451;-78
2022/03/03 09:30:56;;;;;;;2.35;1.70;;;21.10;34.60;;;;;;5114356;28;20091;-78
2022/03/03 09:33:23;;;;;;;5.47;2.42;;;21.10;34.60;;;;;;5114220;28;20136;-78
2022/03/03 09:35:49;;;;;;;2.53;1.98;;;21.20;34.70;;;;;;5113574;28;20050;-78
2022/03/03 09:38:15;;;;;;;3.15;2.30;;;21.20;34.70;;;;;;5114493;28;20048;-78
2022/03/03 09:40:41;;;;;;;3.88;2.55;;;21.20;34.60;;;;;;5114123;28;20060;-78
2022/03/03 09:43:07;;;;;;;3.88;1.98;;;21.20;34.60;;;;;;5114480;28;20555;-78
2022/03/03 09:45:35;;;;;;;4.38;2.20;;;21.20;34.60;;;;;;5094127;28;20491;-78
2022/03/03 09:48:05;;;;;;;4.05;2.10;;;21.10;34.50;;;;;;5095880;28;20467;-78
2022/03/03 09:50:32;;;;;;;5.32;1.95;;;21.20;34.60;;;;;;5114427;28;20048;-78
2022/03/03 09:52:58;;;;;;;3.88;2.10;;;21.20;34.60;;;;;;5113963;28;20079;-78
2022/03/03 09:55:24;;;;;;;3.15;2.15;;;21.20;34.60;;;;;;5095730;28;20047;-78
2022/03/03 09:57:51;;;;;;;3.85;2.38;;;21.20;34.60;;;;;;5113955;28;20071;-78
2022/03/03 10:00:17;;;;;;;2.78;1.98;;;21.20;34.60;;;;;;5095631;28;20544;-78
2022/03/03 10:03:10;;;;;;;2.83;2.22;;;21.20;34.60;;;;;;5095744;28;20063;-79
2022/03/03 10:05:39;;;;;;;5.82;2.42;;;21.20;34.60;;;;;;5113849;28;20070;-78
2022/03/03 10:08:08;;;;;;;3.08;1.90;;;21.20;34.60;;;;;;5095263;28;20120;-79
2022/03/03 10:10:35;;;;;;;4.65;2.72;;;21.20;34.60;;;;;;5113753;28;20047;-78
2022/03/03 10:13:01;;;;;;;4.05;2.50;;;21.20;34.60;;;;;;5113660;28;20074;-78
2022/03/03 10:15:28;;;;;;;5.32;1.95;;;21.20;34.60;;;;;;5113672;28;20492;-78
2022/03/03 10:18:00;;;;;;;3.55;2.10;;;21.20;34.60;;;;;;5113467;28;20039;-78
2022/03/03 10:20:28;;;;;;;4.43;2.22;;;21.20;34.60;;;;;;5113690;28;20044;-78
2022/03/03 10:22:57;;;;;;;2.97;2.00;;;21.20;34.60;;;;;;5113501;28;20510;-79
2022/03/03 10:25:44;;;;;;;3.80;2.42;;;21.20;34.60;;;;;;5113701;28;20071;-78
2022/03/03 10:28:20;;;;;;;4.97;2.50;;;21.20;34.60;;;;;;5110961;28;20507;-79
2022/03/03 10:31:02;;;;;;;3.78;2.40;;;21.20;34.60;;;;;;5095204;28;20051;-78
2022/03/03 10:33:37;;;;;;;2.97;2.20;;;21.20;34.60;;;;;;5113716;28;20048;-78
2022/03/03 10:36:19;;;;;;;2.63;2.00;;;21.20;34.60;;;;;;5095067;28;20054;-78
2022/03/03 10:38:57;;;;;;;4.40;2.35;;;21.20;34.60;;;;;;5077855;28;20063;-78
2022/03/03 10:41:44;;;;;;;3.75;2.30;;;21.20;34.60;;;;;;5113052;28;20491;-78
2022/03/03 10:44:12;;;;;;;3.55;2.30;;;21.20;34.60;;;;;;5113099;28;20056;-79
2022/03/03 10:47:05;;;;;;;2.65;2.10;;;21.20;34.60;;;;;;5112733;28;20043;-78
2022/03/03 10:49:31;;;;;;;4.60;2.40;;;21.20;34.60;;;;;;5112974;28;20143;-78
2022/03/03 10:52:22;;;;;;;4.57;2.40;;;21.20;34.60;;;;;;5093120;28;20054;-79
2022/03/03 10:54:52;;;;;;;2.27;1.93;;;21.20;34.60;;;;;;5113028;28;20138;-78
2022/03/03 10:57:58;;;;;;;3.47;2.15;;;21.20;34.60;;;;;;5113009;28;20050;-78
2022/03/03 11:00:26;;;;;;;4.70;2.25;;;21.20;34.60;;;;;;5062496;28;20061;-78
2022/03/03 11:02:55;;;;;;;6.13;2.33;;;21.20;34.60;;;;;;5094685;28;20109;-79
2022/03/03 11:05:22;;;;;;;5.60;2.33;;;21.20;34.60;;;;;;5094540;28;20104;-78
2022/03/03 11:07:49;;;;;;;5.25;2.45;;;21.20;34.60;;;;;;5094377;28;20051;-78
2022/03/03 11:10:19;;;;;;;3.65;2.28;;;21.20;34.60;;;;;;5113143;28;20051;-78
2022/03/03 11:12:46;;;;;;;4.13;2.65;;;21.20;34.50;;;;;;5112969;28;20399;-78
2022/03/03 11:15:14;;;;;;;4.90;2.58;;;21.20;34.50;;;;;;5092813;28;20048;-78
2022/03/03 11:17:40;;;;;;;3.40;2.38;;;21.20;34.50;;;;;;5112412;28;20407;-78
2022/03/03 11:20:09;;;;;;;4.13;2.55;;;21.30;34.50;;;;;;5112603;28;20142;-78
2022/03/03 11:22:34;;;;;;;4.20;2.13;;;21.30;34.50;;;;;;5093174;28;20048;-78
2022/03/03 11:25:08;;;;;;;3.47;2.38;;;21.20;34.40;;;;;;5111766;28;20063;-78
2022/03/03 11:27:36;;;;;;;4.60;2.40;;;21.30;34.50;;;;;;5112746;28;20074;-78
2022/03/03 11:30:11;;;;;;;2.97;2.28;;;21.30;34.40;;;;;;5112902;28;20055;-78
2022/03/03 11:32:37;;;;;;;5.22;2.20;;;21.30;34.40;;;;;;5112911;28;20056;-78
2022/03/03 11:35:07;;;;;;;5.30;2.22;;;21.30;34.40;;;;;;5112641;28;20181;-78
2022/03/03 11:37:42;;;;;;;5.90;2.47;;;21.30;34.40;;;;;;5112459;28;20043;-79
2022/03/03 11:40:11;;;;;;;3.78;2.13;;;21.30;34.40;;;;;;5076236;28;20052;-78
2022/03/03 11:42:39;;;;;;;4.05;2.42;;;21.30;34.40;;;;;;5077177;28;20398;-78
2022/03/03 11:45:08;;;;;;;3.25;2.22;;;21.30;34.40;;;;;;5112754;28;20095;-78
2022/03/03 11:47:36;;;;;;;3.10;2.20;;;21.30;34.50;;;;;;5112194;28;20054;-78
2022/03/03 11:50:17;;;;;;;3.83;2.38;;;21.30;34.40;;;;;;5092816;28;20048;-78
2022/03/03 11:52:49;;;;;;;2.92;2.13;;;21.30;34.40;;;;;;5092264;28;21062;-78
2022/03/03 11:55:29;;;;;;;2.88;2.05;;;21.30;34.40;;;;;;5111042;28;20078;-78
2022/03/03 11:58:15;;;;;;;4.82;2.95;;;21.30;34.40;;;;;;5095152;28;20043;-78
2022/03/03 12:00:43;;;;;;;4.15;2.42;;;21.30;34.40;;;;;;5115788;28;20071;-79
2022/03/03 12:03:12;;;;;;;7.35;2.92;;;21.30;34.40;;;;;;5115483;28;20075;-78
2022/03/03 12:05:45;;;;;;;4.63;2.28;;;21.30;34.40;;;;;;5115706;28;20044;-79
2022/03/03 12:08:12;;;;;;;5.50;2.78;;;21.30;34.40;;;;;;5096371;28;20044;-79
2022/03/03 12:10:57;;;;;;;4.22;2.28;;;21.40;34.40;;;;;;5115545;28;20059;-78
2022/03/03 12:13:33;;;;;;;4.13;2.65;;;21.40;34.30;;;;;;5115660;28;20043;-78
2022/03/03 12:16:25;;;;;;;3.35;2.30;;;21.40;34.30;;;;;;5097285;28;20499;-78
2022/03/03 12:18:57;;;;;;;3.95;2.13;;;21.40;34.30;;;;;;5115463;28;20100;-78
2022/03/03 12:21:23;;;;;;;5.28;2.30;;;21.40;34.20;;;;;;5115527;28;20081;-78
2022/03/03 12:23:49;;;;;;;3.45;2.40;;;21.40;34.20;;;;;;5115456;28;20146;-78
2022/03/03 12:26:15;;;;;;;3.80;2.20;;;21.50;34.20;;;;;;5096039;28;20047;-78
2022/03/03 12:28:41;;;;;;;3.72;2.40;;;21.50;34.20;;;;;;5115233;28;20058;-78
2022/03/03 12:31:31;;;;;;;5.60;2.53;;;21.40;34.20;;;;;;5096884;28;20445;-78
2022/03/03 12:34:06;;;;;;;3.45;1.98;;;21.50;34.20;;;;;;5095520;28;20066;-78
2022/03/03 12:36:32;;;;;;;3.88;2.75;;;21.50;34.20;;;;;;5115460;28;20139;-78
2022/03/03 12:38:59;;;;;;;4.32;2.00;;;21.50;34.20;;;;;;5114962;28;20177;-78
2022/03/03 12:41:26;;;;;;;5.70;2.20;;;21.50;34.20;;;;;;5097298;28;20513;-78
2022/03/03 12:43:52;;;;;;;2.83;1.98;;;21.50;34.20;;;;;;5115072;28;20059;-78
2022/03/03 12:46:18;;;;;;;3.35;2.13;;;21.40;34.80;;;;;;5114913;28;20043;-78
2022/03/03 12:48:46;;;;;;;5.07;2.28;;;21.40;34.80;;;;;;5114998;28;20052;-78
2022/03/03 12:51:12;;;;;;;6.15;2.10;;;21.40;34.30;;;;;;5115226;28;20109;-78
2022/03/03 12:53:47;;;;;;;6.68;2.75;;;21.40;34.30;;;;;;5115293;28;20436;-78